Time;durP1;ratioP1;P1;durP2;ratioP2;P2;SDS_P1;SDS_P2;PMS_P1;PMS_P2;Temp;Humidity;BMP_temperature;BMP_pressure;BME280_temperature;BME280_humidity;BME280_pressure;Samples;Min_cycle;Max_cycle;Signal;HPM_P1;HPM_P2
2022/04/15 00:02:24;;;;;;;7.22;4.20;;;10.20;99.90;;;-146.41;100.00;57768.22;5009065;28;20096;-73
2022/04/15 00:04:52;;;;;;;6.15;4.22;;;10.20;99.90;;;-146.41;100.00;57768.22;5002198;28;20045;-73
2022/04/15 00:07:19;;;;;;;5.40;3.90;;;10.20;99.90;;;-146.41;100.00;57768.22;5000245;28;20069;-73
2022/04/15 00:09:46;;;;;;;6.85;4.03;;;10.10;99.90;;;-146.41;100.00;57768.22;4997117;28;20143;-73
2022/04/15 00:12:18;;;;;;;6.20;3.88;;;10.20;99.90;;;-146.41;100.00;57768.22;5014046;28;20082;-74
2022/04/15 00:14:45;;;;;;;6.90;4.90;;;10.10;99.90;;;-146.41;100.00;57768.22;5001259;28;20459;-75
2022/04/15 00:17:12;;;;;;;6.07;4.57;;;10.10;99.90;;;-146.41;100.00;57768.22;4997988;28;20120;-73
2022/04/15 00:19:39;;;;;;;7.22;5.18;;;10.10;99.90;;;-146.41;100.00;57768.22;4999627;28;20457;-73
2022/04/15 00:22:06;;;;;;;9.15;4.82;;;10.10;99.90;;;-146.41;100.00;57768.22;5001321;28;20072;-73
2022/04/15 00:24:33;;;;;;;10.63;5.88;;;10.10;99.90;;;-146.41;100.00;57768.22;4998013;28;20144;-73
2022/04/15 00:27:00;;;;;;;8.00;6.03;;;10.00;99.90;;;-146.41;100.00;57768.22;5004672;28;20603;-73
2022/04/15 00:29:28;;;;;;;10.05;5.38;;;10.00;99.90;;;-146.41;100.00;57768.22;5003767;28;20133;-73
2022/04/15 00:31:55;;;;;;;9.30;5.68;;;9.90;99.90;;;-146.41;100.00;57768.22;5001334;28;20041;-73
2022/04/15 00:34:23;;;;;;;10.75;5.60;;;10.00;99.90;;;-146.41;100.00;57768.22;5001008;28;20420;-73
2022/04/15 00:36:50;;;;;;;7.75;5.32;;;9.90;99.90;;;-146.41;100.00;57768.22;5002746;28;20132;-73
2022/04/15 00:39:17;;;;;;;9.18;6.28;;;9.90;99.90;;;-146.41;100.00;57768.22;5007669;28;20049;-73
2022/04/15 00:41:44;;;;;;;7.63;5.10;;;10.00;99.90;;;-146.41;100.00;57768.22;4986047;28;20109;-74
2022/04/15 00:44:11;;;;;;;9.80;5.88;;;9.90;99.90;;;-146.41;100.00;57768.22;5000879;28;20043;-74
2022/04/15 00:46:38;;;;;;;7.70;5.72;;;9.90;99.90;;;-146.41;100.00;57768.22;5003484;28;20053;-74
2022/04/15 00:49:05;;;;;;;11.20;6.47;;;9.80;99.90;;;-146.41;100.00;57768.22;5000869;28;20092;-73
2022/04/15 00:51:35;;;;;;;10.40;6.50;;;9.80;99.90;;;-146.41;100.00;57768.22;5000891;28;20042;-75
2022/04/15 00:54:03;;;;;;;8.10;6.47;;;9.70;99.90;;;-146.41;100.00;57768.22;4997067;28;20081;-73
2022/04/15 00:56:36;;;;;;;8.93;7.45;;;9.70;99.90;;;-146.41;100.00;57768.22;4998175;28;20571;-73
2022/04/15 00:59:05;;;;;;;;;;;9.60;99.90;;;-146.41;100.00;57768.22;5000256;28;20046;-73
2022/04/15 01:01:33;;;;;;;7.95;6.07;;;9.60;99.90;;;-146.41;100.00;57768.22;5002562;28;20028;-73
2022/04/15 01:04:03;;;;;;;8.93;6.18;;;9.60;99.90;;;-146.41;100.00;57768.22;5008933;28;20100;-73
2022/04/15 01:06:31;;;;;;;9.48;6.53;;;9.60;99.90;;;-146.41;100.00;57768.22;4998467;28;20145;-73
2022/04/15 01:09:00;;;;;;;11.05;7.15;;;9.60;99.90;;;-146.41;100.00;57768.22;4997897;28;20104;-73
2022/04/15 01:11:28;;;;;;;10.77;6.93;;;9.60;99.90;;;-146.41;100.00;57768.22;4996490;28;20082;-73
2022/04/15 01:14:00;;;;;;;12.77;7.78;;;9.50;99.90;;;-146.41;100.00;57768.22;5001086;28;20664;-73
2022/04/15 01:16:30;;;;;;;11.25;7.43;;;9.50;99.90;;;-146.41;100.00;57768.22;5000422;28;20531;-74
2022/04/15 01:18:57;;;;;;;12.50;8.35;;;9.50;99.90;;;-146.41;100.00;57768.22;5000779;28;20042;-74
2022/04/15 01:21:32;;;;;;;14.30;8.38;;;9.50;99.90;;;-146.41;100.00;57768.22;5000988;28;20134;-74
2022/04/15 01:23:59;;;;;;;16.15;7.63;;;9.60;99.90;;;-146.41;100.00;57768.22;5002638;28;20069;-74
2022/04/15 01:26:26;;;;;;;9.60;6.40;;;9.50;99.90;;;-146.41;100.00;57768.22;4996634;28;20177;-74
2022/04/15 01:28:53;;;;;;;11.55;8.95;;;9.50;99.90;;;-146.41;100.00;57768.22;5000397;28;20084;-74
2022/04/15 01:31:20;;;;;;;9.50;6.68;;;9.40;99.90;;;-146.41;100.00;57768.22;4996528;28;20165;-74
2022/04/15 01:33:47;;;;;;;10.05;6.18;;;9.40;99.90;;;-146.41;100.00;57768.22;4996940;28;20089;-74
2022/04/15 01:36:14;;;;;;;7.10;5.65;;;9.30;99.90;;;-146.41;100.00;57768.22;4998893;28;20070;-74
2022/04/15 01:38:42;;;;;;;11.77;8.07;;;9.30;99.90;;;-146.41;100.00;57768.22;4998364;28;20552;-74
2022/04/15 01:41:10;;;;;;;12.93;7.25;;;9.30;99.90;;;-146.41;100.00;57768.22;4996674;28;20077;-74
2022/04/15 01:43:37;;;;;;;10.65;7.45;;;9.30;99.90;;;-146.41;100.00;57768.22;5000269;28;20073;-74
2022/04/15 01:46:04;;;;;;;9.68;7.15;;;9.30;99.90;;;-146.41;100.00;57768.22;4999333;28;20165;-74
2022/04/15 01:48:31;;;;;;;13.13;8.73;;;9.30;99.90;;;-146.41;100.00;57768.22;4998661;28;20109;-74
2022/04/15 01:50:58;;;;;;;10.45;7.63;;;9.20;99.90;;;-146.41;100.00;57768.22;5003561;28;20053;-74
2022/04/15 01:53:26;;;;;;;8.75;7.15;;;9.20;99.90;;;-146.41;100.00;57768.22;4996626;28;20053;-74
2022/04/15 01:55:53;;;;;;;12.02;7.70;;;9.20;99.90;;;-146.41;100.00;57768.22;4994166;28;20073;-74
2022/04/15 01:58:19;;;;;;;9.85;6.68;;;9.10;99.90;;;-146.41;100.00;57768.22;4995422;28;20082;-74
2022/04/15 02:00:47;;;;;;;9.70;6.10;;;9.00;99.90;;;-146.41;100.00;57768.22;5020233;28;20589;-74
2022/04/15 02:03:14;;;;;;;10.85;7.03;;;9.00;99.90;;;-146.41;100.00;57768.22;4998957;28;20041;-74
2022/04/15 02:05:41;;;;;;;16.17;7.95;;;9.00;99.90;;;-146.41;100.00;57768.22;5004614;28;20082;-74
2022/04/15 02:08:08;;;;;;;12.48;7.57;;;9.00;99.90;;;-146.41;100.00;57768.22;4999987;28;20492;-74
2022/04/15 02:10:35;;;;;;;11.05;7.88;;;8.90;99.90;;;-146.41;100.00;57768.22;4997468;28;20084;-74
2022/04/15 02:13:02;;;;;;;14.55;9.00;;;8.90;99.90;;;-146.41;100.00;57768.22;4997129;28;20099;-74
2022/04/15 02:15:30;;;;;;;16.05;10.13;;;8.80;99.90;;;-146.41;100.00;57768.22;5001240;28;20449;-74
2022/04/15 02:17:57;;;;;;;14.02;9.73;;;8.70;99.90;;;-146.41;100.00;57768.22;5002254;28;20046;-74
2022/04/15 02:20:24;;;;;;;15.07;10.63;;;8.70;99.90;;;-146.41;100.00;57768.22;4999820;28;20128;-74
2022/04/15 02:22:54;;;;;;;12.63;8.45;;;8.70;99.90;;;-146.41;100.00;57768.22;4998787;28;20065;-74
2022/04/15 02:25:21;;;;;;;11.27;7.60;;;8.80;99.90;;;-146.41;100.00;57768.22;4994982;28;20400;-74
2022/04/15 02:27:48;;;;;;;10.55;7.45;;;8.80;99.90;;;-146.41;100.00;57768.22;4997962;28;20105;-74
2022/04/15 02:30:15;;;;;;;10.32;6.95;;;8.70;99.90;;;-146.41;100.00;57768.22;4999800;28;20053;-74
2022/04/15 02:32:42;;;;;;;12.95;9.60;;;8.70;99.90;;;-146.41;100.00;57768.22;5001268;28;20111;-74
2022/04/15 02:35:09;;;;;;;12.02;9.98;;;8.60;99.90;;;-146.41;100.00;57768.22;4996436;28;20077;-74
2022/04/15 02:37:36;;;;;;;11.85;9.65;;;8.60;99.90;;;-146.41;100.00;57768.22;4998637;28;20062;-74
2022/04/15 02:40:06;;;;;;;10.35;8.27;;;8.60;99.90;;;-146.41;100.00;57768.22;4994656;28;20424;-74
2022/04/15 02:42:34;;;;;;;9.40;7.20;;;8.60;99.90;;;-146.41;100.00;57768.22;4998402;28;20060;-74
2022/04/15 02:45:03;;;;;;;9.85;6.90;;;8.60;99.90;;;-146.41;100.00;57768.22;4994741;28;20129;-74
2022/04/15 02:47:31;;;;;;;9.23;6.95;;;8.50;99.90;;;-146.41;100.00;57768.22;4999141;28;20069;-74
2022/04/15 02:49:58;;;;;;;10.23;7.25;;;8.50;99.90;;;-146.41;100.00;57768.22;5000470;28;20164;-74
2022/04/15 02:52:26;;;;;;;10.57;7.65;;;8.50;99.90;;;-146.41;100.00;57768.22;5001955;28;20505;-74
2022/04/15 02:54:53;;;;;;;10.18;8.77;;;8.50;99.90;;;-146.41;100.00;57768.22;4997870;28;20050;-74
2022/04/15 02:57:20;;;;;;;13.10;8.32;;;8.50;99.90;;;-146.41;100.00;57768.22;5002137;28;20129;-74
2022/04/15 02:59:48;;;;;;;8.68;7.05;;;8.50;99.90;;;-146.41;100.00;57768.22;5005890;28;20081;-74
2022/04/15 03:02:15;;;;;;;14.82;8.18;;;8.50;99.90;;;-146.41;100.00;57768.22;5004959;28;20110;-74
2022/04/15 03:04:43;;;;;;;10.50;7.40;;;8.50;99.90;;;-146.41;100.00;57768.22;5006800;28;20066;-74
2022/04/15 03:07:10;;;;;;;8.15;6.88;;;8.50;99.90;;;-146.41;100.00;57768.22;5004297;28;20047;-74
2022/04/15 03:09:37;;;;;;;12.23;9.13;;;8.50;99.90;;;-146.41;100.00;57768.22;5013075;28;20054;-74
2022/04/15 03:12:04;;;;;;;11.18;8.93;;;8.40;99.90;;;-146.41;100.00;57768.22;5003198;28;20106;-74
2022/04/15 03:14:31;;;;;;;12.50;7.65;;;8.40;99.90;;;-146.41;100.00;57768.22;4986331;28;20089;-74
2022/04/15 03:16:59;;;;;;;7.95;5.43;;;;;;;-146.41;100.00;57768.22;5003831;28;20130;-74
2022/04/15 03:19:26;;;;;;;8.20;6.72;;;8.50;99.90;;;-146.41;100.00;57768.22;5003093;28;20080;-74
2022/04/15 03:21:53;;;;;;;9.18;5.78;;;8.40;99.90;;;-146.41;100.00;57768.22;4995733;28;20133;-74
2022/04/15 03:24:20;;;;;;;7.80;5.85;;;8.40;99.90;;;-146.41;100.00;57768.22;5001907;28;20072;-74
2022/04/15 03:26:47;;;;;;;12.65;8.40;;;8.40;99.90;;;-146.41;100.00;57768.22;5004999;28;20079;-74
2022/04/15 03:29:15;;;;;;;11.35;9.55;;;8.40;99.90;;;-146.41;100.00;57768.22;5003925;28;20110;-74
2022/04/15 03:31:43;;;;;;;11.25;8.52;;;8.40;99.90;;;-146.41;100.00;57768.22;5001802;28;20054;-74
2022/04/15 03:34:10;;;;;;;13.85;10.07;;;8.40;99.90;;;-146.41;100.00;57768.22;5003472;28;20049;-74
2022/04/15 03:36:37;;;;;;;13.63;9.93;;;8.50;99.90;;;-146.41;100.00;57768.22;5033697;28;20539;-74
2022/04/15 03:39:04;;;;;;;13.77;10.07;;;8.50;99.90;;;-146.41;100.00;57768.22;5001770;28;20108;-73
2022/04/15 03:41:32;;;;;;;13.90;9.40;;;8.50;99.90;;;-146.41;100.00;57768.22;5008517;28;20508;-74
2022/04/15 03:44:01;;;;;;;16.67;12.10;;;8.50;99.90;;;-146.41;100.00;57768.22;5006757;28;20058;-74
2022/04/15 03:46:28;;;;;;;14.05;10.68;;;8.40;99.90;;;-146.41;100.00;57768.22;4990506;28;20054;-74
2022/04/15 03:48:55;;;;;;;17.10;12.38;;;8.40;99.90;;;-146.41;100.00;57768.22;5009890;28;20050;-74
2022/04/15 03:51:22;;;;;;;16.38;12.75;;;8.40;99.90;;;-146.41;100.00;57768.22;5005601;28;20556;-74
2022/04/15 03:53:49;;;;;;;14.00;9.88;;;8.30;99.90;;;-146.41;100.00;57768.22;5005217;28;20078;-74
2022/04/15 03:56:16;;;;;;;12.77;8.80;;;8.40;99.90;;;-146.41;100.00;57768.22;5005361;28;20070;-74
2022/04/15 03:58:43;;;;;;;10.32;7.90;;;8.40;99.90;;;-146.41;100.00;57768.22;5003253;28;20074;-74
2022/04/15 04:01:10;;;;;;;11.95;7.97;;;8.30;99.90;;;-146.41;100.00;57768.22;5005089;28;20133;-74
2022/04/15 04:03:37;;;;;;;12.60;8.02;;;8.30;99.90;;;-146.41;100.00;57768.22;5005945;28;20651;-74
2022/04/15 04:06:04;;;;;;;10.75;6.43;;;8.30;99.90;;;-146.41;100.00;57768.22;5004998;28;20096;-74
2022/04/15 04:08:31;;;;;;;11.23;7.25;;;8.30;99.90;;;-146.41;100.00;57768.22;5000039;28;20062;-74
2022/04/15 04:10:58;;;;;;;9.05;6.55;;;8.30;99.90;;;-146.41;100.00;57768.22;4998220;28;20086;-74
2022/04/15 04:13:25;;;;;;;11.40;7.82;;;8.30;99.90;;;-146.41;100.00;57768.22;5001457;28;20386;-74
2022/04/15 04:15:52;;;;;;;8.70;6.55;;;8.30;99.90;;;-146.41;100.00;57768.22;4990503;28;20092;-74
2022/04/15 04:18:21;;;;;;;10.65;7.05;;;8.40;99.90;;;-146.41;100.00;57768.22;5002264;28;20050;-74
2022/04/15 04:20:49;;;;;;;18.55;11.95;;;8.40;99.90;;;-146.41;100.00;57768.22;5005794;28;20147;-73
2022/04/15 04:23:16;;;;;;;10.25;8.13;;;8.50;99.90;;;-146.41;100.00;57768.22;5003930;28;20045;-74
2022/04/15 04:25:43;;;;;;;11.80;8.50;;;8.60;99.90;;;-146.41;100.00;57768.22;5003209;28;20042;-74
2022/04/15 04:28:11;;;;;;;11.93;8.18;;;8.60;99.90;;;-146.41;100.00;57768.22;5005303;28;20099;-74
2022/04/15 04:30:38;;;;;;;9.57;6.45;;;8.60;99.90;;;-146.41;100.00;57768.22;5002738;28;20086;-74
2022/04/15 04:33:05;;;;;;;11.88;7.18;;;8.70;99.90;;;-146.41;100.00;57768.22;5000157;28;20073;-74
2022/04/15 04:35:33;;;;;;;10.30;7.25;;;8.70;99.90;;;-146.41;100.00;57768.22;4998771;28;20094;-74
2022/04/15 04:38:00;;;;;;;11.10;8.20;;;8.70;99.90;;;-146.41;100.00;57768.22;4979371;28;20070;-74
2022/04/15 04:40:27;;;;;;;14.02;9.25;;;8.80;99.90;;;-146.41;100.00;57768.22;5004282;28;20141;-74
2022/04/15 04:42:56;;;;;;;10.77;8.25;;;8.90;99.90;;;-146.41;100.00;57768.22;5001156;28;20054;-74
2022/04/15 04:45:24;;;;;;;12.48;8.95;;;8.80;99.90;;;-146.41;100.00;57768.22;4997548;28;20070;-74
2022/04/15 04:47:52;;;;;;;15.40;9.95;;;8.80;99.90;;;-146.41;100.00;57768.22;5003275;28;20150;-74
2022/04/15 04:50:20;;;;;;;11.77;8.25;;;8.80;99.90;;;-146.41;100.00;57768.22;5002215;28;20542;-74
2022/04/15 04:52:48;;;;;;;10.80;7.15;;;8.90;99.90;;;-146.41;100.00;57768.22;4998827;28;20057;-74
2022/04/15 04:55:16;;;;;;;11.13;7.88;;;9.00;99.90;;;-146.41;100.00;57768.22;5003147;28;20518;-74
2022/04/15 04:57:42;;;;;;;10.93;8.20;;;9.00;99.90;;;-146.41;100.00;57768.22;5001094;28;20088;-74
2022/04/15 05:00:13;;;;;;;10.07;7.75;;;9.00;99.90;;;-146.41;100.00;57768.22;5005988;28;20129;-74
2022/04/15 05:02:41;;;;;;;11.88;8.43;;;9.00;99.90;;;-146.41;100.00;57768.22;5002092;28;20113;-74
2022/04/15 05:05:09;;;;;;;10.70;7.03;;;9.10;99.90;;;-146.41;100.00;57768.22;5000852;28;20058;-74
2022/04/15 05:07:36;;;;;;;10.20;7.05;;;9.20;99.90;;;-146.41;100.00;57768.22;5003311;28;20081;-74
2022/04/15 05:10:08;;;;;;;11.63;9.05;;;9.30;99.90;;;-146.41;100.00;57768.22;5000108;28;20050;-74
2022/04/15 05:12:35;;;;;;;10.40;8.27;;;9.20;99.90;;;-146.41;100.00;57768.22;4999088;28;20566;-74
2022/04/15 05:15:03;;;;;;;10.20;6.90;;;9.20;99.90;;;-146.41;100.00;57768.22;4998762;28;20467;-74
2022/04/15 05:17:30;;;;;;;10.98;7.97;;;9.20;99.90;;;-146.41;100.00;57768.22;5002355;28;20042;-74
2022/04/15 05:19:57;;;;;;;11.75;8.38;;;9.20;99.90;;;-146.41;100.00;57768.22;4996630;28;20085;-74
2022/04/15 05:22:24;;;;;;;10.40;7.75;;;9.30;99.90;;;-146.41;100.00;57768.22;5002238;28;20077;-74
2022/04/15 05:24:52;;;;;;;14.40;9.52;;;9.50;99.90;;;-146.41;100.00;57768.22;4999913;28;20073;-74
2022/04/15 05:27:20;;;;;;;13.10;9.15;;;9.50;99.90;;;-146.41;100.00;57768.22;4999505;28;20050;-74
2022/04/15 05:29:47;;;;;;;10.35;7.65;;;9.60;99.90;;;-146.41;100.00;57768.22;5000909;28;20104;-74
2022/04/15 05:32:14;;;;;;;11.18;7.88;;;9.70;99.90;;;-146.41;100.00;57768.22;4981822;28;20207;-74
2022/04/15 05:34:46;;;;;;;12.00;8.27;;;9.80;99.90;;;-146.41;100.00;57768.22;4997273;28;20507;-74
2022/04/15 05:37:13;;;;;;;13.00;9.27;;;9.90;99.90;;;-146.41;100.00;57768.22;4997974;28;20049;-74
2022/04/15 05:39:40;;;;;;;10.95;7.43;;;9.90;99.90;;;-146.41;100.00;57768.22;4998906;28;20140;-74
2022/04/15 05:42:07;;;;;;;10.02;7.22;;;10.00;99.90;;;-146.41;100.00;57768.22;4997899;28;20759;-74
2022/04/15 05:44:35;;;;;;;16.80;8.18;;;10.10;99.90;;;-146.41;100.00;57768.22;4995486;28;20739;-74
2022/04/15 05:47:02;;;;;;;11.13;7.65;;;10.10;99.90;;;-146.41;100.00;57768.22;4997912;28;20171;-74
2022/04/15 05:49:29;;;;;;;11.88;7.80;;;10.20;99.90;;;-146.41;100.00;57768.22;4995841;28;20066;-74
2022/04/15 05:51:57;;;;;;;12.60;6.53;;;10.30;99.90;;;-146.41;100.00;57768.22;4996906;28;20177;-74
2022/04/15 05:54:24;;;;;;;14.07;7.72;;;10.50;99.90;;;-146.41;100.00;57768.22;4996844;28;20154;-74
2022/04/15 05:56:51;;;;;;;11.82;8.75;;;10.50;99.90;;;-146.41;100.00;57768.22;4998156;28;20070;-74
2022/04/15 05:59:21;;;;;;;10.95;7.43;;;10.70;99.90;;;-146.41;100.00;57768.22;5001789;28;20047;-74
2022/04/15 06:01:51;;;;;;;8.70;6.55;;;10.80;99.90;;;-146.41;100.00;57768.22;5007213;28;20150;-74
2022/04/15 06:04:19;;;;;;;9.95;7.38;;;10.90;99.90;;;-146.41;100.00;57768.22;4998304;28;20428;-74
2022/04/15 06:06:47;;;;;;;12.52;8.48;;;11.00;99.90;;;-146.41;100.00;57768.22;5001464;28;20551;-74
2022/04/15 06:09:14;;;;;;;12.77;9.68;;;11.10;99.90;;;-146.41;100.00;57768.22;4994847;28;20046;-74
2022/04/15 06:11:42;;;;;;;16.20;11.27;;;11.30;99.90;;;-146.41;100.00;57768.22;4997315;28;20582;-74
2022/04/15 06:14:09;;;;;;;17.02;12.23;;;11.40;99.90;;;-146.41;100.00;57768.22;5000847;28;20054;-74
2022/04/15 06:16:42;;;;;;;17.55;11.52;;;11.40;99.90;;;-146.41;100.00;57768.22;5029124;28;20096;-74
2022/04/15 06:19:09;;;;;;;;;;;11.50;99.90;;;-146.41;100.00;57768.22;4997884;28;20559;-74
2022/04/15 06:21:51;;;;;;;26.83;20.38;;;11.80;99.90;;;-146.41;100.00;57768.22;4995637;28;20360;-74
2022/04/15 06:24:19;;;;;;;36.17;26.10;;;12.00;99.90;;;-146.41;100.00;57768.22;4995646;28;20050;-74
2022/04/15 06:26:46;;;;;;;40.20;25.95;;;12.20;99.90;;;-146.41;100.00;57768.22;5002375;28;20129;-74
2022/04/15 06:29:15;;;;;;;34.17;25.88;;;12.40;99.90;;;-146.41;100.00;57768.22;5000094;28;20038;-74
2022/04/15 06:31:42;;;;;;;33.10;25.13;;;12.60;99.90;;;-146.41;100.00;57768.22;5000938;28;20108;-74
2022/04/15 06:34:09;;;;;;;34.72;25.27;;;12.70;99.90;;;-146.41;100.00;57768.22;5000818;28;20045;-74
2022/04/15 06:36:36;;;;;;;34.30;26.10;;;12.70;99.90;;;-146.41;100.00;57768.22;4994523;28;20062;-74
2022/04/15 06:39:03;;;;;;;30.73;24.58;;;12.80;99.90;;;-146.41;100.00;57768.22;4998015;28;20132;-74
2022/04/15 06:41:30;;;;;;;38.75;26.17;;;12.90;99.90;;;-146.41;100.00;57768.22;5011778;28;20475;-74
2022/04/15 06:43:58;;;;;;;33.63;25.77;;;13.00;99.90;;;-146.41;100.00;57768.22;4997849;28;20129;-74
2022/04/15 06:46:25;;;;;;;31.50;24.50;;;13.10;99.90;;;-146.41;100.00;57768.22;5005483;28;20084;-74
2022/04/15 06:48:52;;;;;;;38.63;27.60;;;13.10;99.90;;;-146.41;100.00;57768.22;5001669;28;20058;-74
2022/04/15 06:51:19;;;;;;;32.67;24.75;;;13.10;99.90;;;-146.41;100.00;57768.22;4995571;28;20101;-74
2022/04/15 06:53:46;;;;;;;34.22;26.45;;;13.20;99.90;;;-146.41;100.00;57768.22;4997156;28;20141;-73
2022/04/15 06:56:14;;;;;;;37.20;26.48;;;13.10;99.90;;;-146.41;100.00;57768.22;5016775;28;20512;-74
2022/04/15 06:58:42;;;;;;;31.00;24.25;;;13.30;99.90;;;-146.41;100.00;57768.22;5000165;28;20054;-74
2022/04/15 07:01:09;;;;;;;33.50;24.70;;;13.40;99.90;;;-146.41;100.00;57768.22;4998112;28;20085;-74
2022/04/15 07:03:39;;;;;;;36.95;26.00;;;13.50;99.90;;;-146.41;100.00;57768.22;4985343;28;20542;-74
2022/04/15 07:06:06;;;;;;;33.35;24.05;;;13.60;99.90;;;-146.41;100.00;57768.22;5001027;28;20053;-74
2022/04/15 07:08:33;;;;;;;31.10;23.52;;;13.80;99.90;;;-146.41;100.00;57768.22;5001138;28;20188;-74
2022/04/15 07:11:00;;;;;;;66.05;29.42;;;14.00;99.90;;;-146.41;100.00;57768.22;4998229;28;20479;-74
2022/04/15 07:13:27;;;;;;;39.30;27.23;;;14.10;99.90;;;-146.41;100.00;57768.22;4997265;28;20101;-74
2022/04/15 07:15:55;;;;;;;34.55;26.02;;;14.00;99.90;;;-146.41;100.00;57768.22;5004685;28;20046;-74
2022/04/15 07:18:22;;;;;;;31.60;24.25;;;14.10;99.90;;;-146.41;100.00;57768.22;4999229;28;20049;-74
2022/04/15 07:20:49;;;;;;;40.35;28.67;;;14.20;99.90;;;-146.41;100.00;57768.22;4996915;28;20462;-73
2022/04/15 07:23:16;;;;;;;33.15;26.05;;;14.10;99.90;;;-146.41;100.00;57768.22;4991497;28;20665;-74
2022/04/15 07:25:44;;;;;;;37.67;28.20;;;14.10;99.90;;;-146.41;100.00;57768.22;5008586;28;20128;-73
2022/04/15 07:28:11;;;;;;;32.67;24.10;;;14.10;99.90;;;-146.41;100.00;57768.22;5006695;28;20536;-73
2022/04/15 07:30:38;;;;;;;35.47;24.92;;;14.20;99.90;;;-146.41;100.00;57768.22;4997837;28;20154;-73
2022/04/15 07:33:05;;;;;;;29.80;24.25;;;14.20;99.90;;;-146.41;100.00;57768.22;4999738;28;20132;-73
2022/04/15 07:35:32;;;;;;;31.63;25.70;;;14.20;99.90;;;-146.41;100.00;57768.22;5001662;28;20409;-73
2022/04/15 07:37:59;;;;;;;35.10;26.67;;;14.10;99.90;;;-146.41;100.00;57768.22;4999799;28;20039;-73
2022/04/15 07:40:29;;;;;;;31.15;23.95;;;14.10;99.90;;;-146.41;100.00;57768.22;4995823;28;20046;-73
2022/04/15 07:42:59;;;;;;;27.52;21.40;;;14.30;99.90;;;-146.41;100.00;57768.22;5014856;28;20120;-73
2022/04/15 07:45:26;;;;;;;28.88;22.00;;;14.60;99.90;;;-146.41;100.00;57768.22;5001064;28;20078;-74
2022/04/15 07:47:54;;;;;;;31.10;22.73;;;14.90;99.90;;;-146.41;100.00;57768.22;5001993;28;20089;-73
2022/04/15 07:50:25;;;;;;;29.45;22.05;;;14.90;99.90;;;-146.41;100.00;57768.22;4988190;28;20046;-73
2022/04/15 07:52:58;;;;;;;38.85;22.75;;;14.80;99.90;;;-146.41;100.00;57768.22;5000906;28;20042;-73
2022/04/15 07:55:26;;;;;;;29.80;20.98;;;14.90;99.90;;;-146.41;100.00;57768.22;4998338;28;20038;-73
2022/04/15 07:57:54;;;;;;;23.05;18.70;;;14.80;99.90;;;-146.41;100.00;57768.22;4999016;28;20126;-73
2022/04/15 08:00:21;;;;;;;26.40;19.70;;;15.10;99.90;;;-146.41;100.00;57768.22;5005497;28;20047;-73
2022/04/15 08:02:49;;;;;;;27.23;19.35;;;15.10;99.90;;;-146.41;100.00;57768.22;5001231;28;20049;-73
2022/04/15 08:05:16;;;;;;;22.35;18.70;;;15.20;99.90;;;-146.41;100.00;57768.22;5009678;28;20483;-73
2022/04/15 08:07:43;;;;;;;24.58;18.48;;;15.30;99.90;;;-146.41;100.00;57768.22;5003645;28;20112;-73
2022/04/15 08:10:10;;;;;;;26.23;18.08;;;15.20;99.90;;;-146.41;100.00;57768.22;5003820;28;20064;-73
2022/04/15 08:12:38;;;;;;;24.65;16.73;;;15.20;99.90;;;-146.41;100.00;57768.22;5001138;28;20050;-74
2022/04/15 08:15:05;;;;;;;24.25;15.82;;;15.30;99.90;;;-146.41;100.00;57768.22;4999336;28;20046;-73
2022/04/15 08:17:33;;;;;;;24.08;17.13;;;15.40;99.90;;;-146.41;100.00;57768.22;5000704;28;20473;-73
2022/04/15 08:19:59;;;;;;;21.25;15.23;;;15.60;99.90;;;-146.41;100.00;57768.22;5003837;28;20042;-73
2022/04/15 08:22:27;;;;;;;20.85;13.43;;;15.70;99.90;;;-146.41;100.00;57768.22;4998112;28;20046;-72
2022/04/15 08:24:54;;;;;;;16.70;12.20;;;15.80;99.90;;;-146.41;100.00;57768.22;5000689;28;20479;-73
2022/04/15 08:27:25;;;;;;;22.52;13.40;;;15.90;99.90;;;-146.41;100.00;57768.22;5002216;28;20084;-72
2022/04/15 08:29:52;;;;;;;17.35;12.05;;;15.90;99.90;;;-146.41;100.00;57768.22;5002551;28;20097;-73
2022/04/15 08:32:20;;;;;;;17.25;12.38;;;;;;;-146.41;100.00;57768.22;4999470;28;20108;-72
2022/04/15 08:34:48;;;;;;;19.27;13.02;;;16.10;99.90;;;-146.41;100.00;57768.22;5001087;28;20069;-73
2022/04/15 08:37:15;;;;;;;20.77;13.85;;;16.00;99.90;;;-146.41;100.00;57768.22;4996079;28;20077;-74
2022/04/15 08:39:42;;;;;;;20.70;14.45;;;16.30;99.90;;;-146.41;100.00;57768.22;5010431;28;20145;-74
2022/04/15 08:42:10;;;;;;;16.90;13.35;;;16.20;99.90;;;-146.41;100.00;57768.22;4999850;28;20284;-73
2022/04/15 08:44:40;;;;;;;18.15;13.23;;;16.40;99.90;;;-146.41;100.00;57768.22;4997152;28;20057;-73
2022/04/15 08:47:08;;;;;;;19.08;13.05;;;16.60;99.90;;;-146.41;100.00;57768.22;5006791;28;20429;-74
2022/04/15 08:49:36;;;;;;;17.98;12.15;;;16.50;99.90;;;-146.41;100.00;57768.22;5000764;28;20586;-74
2022/04/15 08:52:04;;;;;;;15.80;11.65;;;16.90;99.90;;;-146.41;100.00;57768.22;5000433;28;20050;-74
2022/04/15 08:54:31;;;;;;;13.35;10.65;;;17.10;99.90;;;-146.41;100.00;57768.22;5000571;28;20129;-74
2022/04/15 08:56:58;;;;;;;16.67;10.95;;;17.30;99.90;;;-146.41;100.00;57768.22;5006661;28;20049;-73
2022/04/15 08:59:25;;;;;;;13.63;10.25;;;17.50;99.90;;;-146.41;100.00;57768.22;5003731;28;20056;-74
2022/04/15 09:01:52;;;;;;;14.57;10.43;;;17.60;99.90;;;-146.41;100.00;57768.22;5000916;28;20074;-74
2022/04/15 09:04:19;;;;;;;15.88;12.60;;;17.70;99.90;;;-146.41;100.00;57768.22;5000673;28;20115;-74
2022/04/15 09:06:55;;;;;;;16.80;11.27;;;17.30;99.90;;;-146.41;100.00;57768.22;5000636;28;20074;-74
2022/04/15 09:09:29;;;;;;;17.35;12.10;;;17.30;99.90;;;-146.41;100.00;57768.22;5001554;28;20497;-74
2022/04/15 09:11:59;;;;;;;18.23;13.35;;;17.50;99.90;;;-146.41;100.00;57768.22;5000067;28;20054;-73
2022/04/15 09:14:27;;;;;;;18.00;12.32;;;17.70;99.90;;;-146.41;100.00;57768.22;4996509;28;20165;-73
2022/04/15 09:16:54;;;;;;;17.35;12.70;;;17.60;99.90;;;-146.41;100.00;57768.22;5001924;28;20476;-72
2022/04/15 09:19:21;;;;;;;17.77;12.23;;;17.40;99.90;;;-146.41;100.00;57768.22;5000290;28;20570;-73
2022/04/15 09:21:57;;;;;;;15.70;11.07;;;17.50;99.90;;;-146.41;100.00;57768.22;4994193;28;20497;-74
2022/04/15 09:24:42;;;;;;;15.68;10.65;;;17.50;99.90;;;-146.41;100.00;57768.22;5001975;28;20745;-73
2022/04/15 09:27:09;;;;;;;18.35;13.90;;;17.90;99.90;;;-146.41;100.00;57768.22;5028504;28;20878;-73
2022/04/15 09:29:39;;;;;;;18.38;14.00;;;18.30;99.90;;;-146.41;100.00;57768.22;4981017;28;20121;-74
2022/04/15 09:32:14;;;;;;;16.15;12.18;;;18.40;99.90;;;-146.41;100.00;57768.22;4997886;28;20133;-73
2022/04/15 09:35:05;;;;;;;18.88;14.10;;;18.60;99.90;;;-146.41;100.00;57768.22;4997210;28;20769;-73
2022/04/15 09:37:39;;;;;;;19.90;14.82;;;18.60;99.90;;;-146.41;100.00;57768.22;4999283;28;20082;-73
2022/04/15 09:40:14;;;;;;;17.80;13.52;;;18.70;99.90;;;-146.41;100.00;57768.22;4997089;28;20133;-73
2022/04/15 09:42:49;;;;;;;18.67;13.10;;;18.50;99.90;;;-146.41;100.00;57768.22;4997848;28;20054;-73
2022/04/15 09:45:19;;;;;;;19.35;12.27;;;18.50;99.90;;;-146.41;100.00;57768.22;5000655;28;20145;-74
2022/04/15 09:47:57;;;;;;;17.55;12.60;;;18.50;99.90;;;-146.41;100.00;57768.22;4999573;28;20134;-73
2022/04/15 09:50:27;;;;;;;19.80;15.20;;;18.80;99.90;;;-146.41;100.00;57768.22;5003805;28;20111;-74
2022/04/15 09:53:15;;;;;;;18.05;13.50;;;18.80;99.90;;;-146.41;100.00;57768.22;4998584;28;20149;-73
2022/04/15 09:55:46;;;;;;;17.73;13.45;;;18.80;99.90;;;-146.41;100.00;57768.22;4988395;28;20042;-73
2022/04/15 09:58:16;;;;;;;18.85;12.85;;;18.90;99.90;;;-146.41;100.00;57768.22;5021855;28;20052;-73
2022/04/15 10:00:48;;;;;;;18.75;14.25;;;18.80;99.90;;;-146.41;100.00;57768.22;4998498;28;20046;-73